Time;durP1;ratioP1;P1;durP2;ratioP2;P2;SDS_P1;SDS_P2;PMS_P1;PMS_P2;Temp;Humidity;BMP_temperature;BMP_pressure;BME280_temperature;BME280_humidity;BME280_pressure;Samples;Min_cycle;Max_cycle;Signal;HPM_P1;HPM_P2
2023/08/03 00:00:25;;;;;;;5.32;0.90;;;;;;;;;;5084834;28;20028;-78
2023/08/03 00:02:51;;;;;;;2.80;1.08;;;;;;;;;;5085732;28;20020;-78
2023/08/03 00:05:17;;;;;;;2.95;0.90;;;;;;;;;;5086418;28;20047;-78
2023/08/03 00:07:52;;;;;;;2.53;1.00;;;;;;;;;;5080604;28;20016;-78
2023/08/03 00:10:18;;;;;;;3.90;0.90;;;;;;;;;;5080766;28;20032;-78
2023/08/03 00:12:45;;;;;;;4.75;1.10;;;;;;;;;;5082401;28;20020;-78
2023/08/03 00:15:12;;;;;;;3.03;1.05;;;;;;;;;;5085098;28;20072;-78
2023/08/03 00:17:38;;;;;;;4.88;1.25;;;;;;;;;;5084836;28;20396;-79
2023/08/03 00:20:06;;;;;;;8.30;1.65;;;;;;;;;;5084394;28;20024;-78
2023/08/03 00:22:32;;;;;;;2.22;1.20;;;;;;;;;;5084132;28;20024;-78
2023/08/03 00:25:00;;;;;;;5.45;1.17;;;;;;;;;;5084473;28;20039;-78
2023/08/03 00:27:26;;;;;;;2.15;1.10;;;;;;;;;;5084099;28;20029;-79
2023/08/03 00:29:51;;;;;;;2.95;1.20;;;;;;;;;;5086531;28;20029;-78
2023/08/03 00:32:17;;;;;;;3.63;1.17;;;;;;;;;;5085425;28;20047;-78
2023/08/03 00:34:43;;;;;;;6.28;1.15;;;;;;;;;;5084800;28;20024;-79
2023/08/03 00:37:10;;;;;;;6.43;1.25;;;;;;;;;;5085532;28;20028;-79
2023/08/03 00:39:35;;;;;;;3.05;1.05;;;;;;;;;;5084959;28;20035;-78
2023/08/03 00:42:00;;;;;;;3.28;1.40;;;;;;;;;;5082088;28;20024;-79
2023/08/03 00:44:25;;;;;;;2.70;1.00;;;;;;;;;;5081584;28;20021;-78
2023/08/03 00:46:51;;;;;;;3.53;0.90;;;;;;;;;;5079676;28;20020;-79
2023/08/03 00:49:16;;;;;;;1.60;0.75;;;;;;;;;;5080157;28;20025;-78
2023/08/03 00:51:41;;;;;;;1.85;1.02;;;;;;;;;;5077746;28;20549;-77
2023/08/03 00:54:07;;;;;;;3.40;1.10;;;;;;;;;;5074962;28;20024;-77
2023/08/03 00:56:36;;;;;;;2.00;1.00;;;;;;;;;;5073544;28;20027;-77
2023/08/03 00:59:03;;;;;;;3.15;1.13;;;;;;;;;;5077963;28;20049;-79
2023/08/03 01:01:29;;;;;;;5.72;1.13;;;;;;;;;;5076427;28;20452;-77
2023/08/03 01:03:54;;;;;;;2.92;1.00;;;;;;;;;;5075381;28;20103;-79
2023/08/03 01:06:20;;;;;;;3.25;1.10;;;;;;;;;;5079835;28;20078;-77
2023/08/03 01:08:45;;;;;;;3.35;1.17;;;;;;;;;;5073911;28;20036;-77
2023/08/03 01:11:11;;;;;;;6.60;0.90;;;;;;;;;;5073876;28;20025;-77
2023/08/03 01:13:36;;;;;;;4.00;1.20;;;;;;;;;;5074204;28;20104;-77
2023/08/03 01:16:02;;;;;;;3.08;0.93;;;;;;;;;;5076422;28;20498;-79
2023/08/03 01:18:28;;;;;;;2.72;0.95;;;;;;;;;;5075849;28;20025;-77
2023/08/03 01:20:53;;;;;;;5.13;1.13;;;;;;;;;;5073281;28;20017;-77
2023/08/03 01:23:18;;;;;;;2.50;1.10;;;;;;;;;;5073624;28;20028;-77
2023/08/03 01:25:44;;;;;;;3.25;1.00;;;;;;;;;;5080020;28;20022;-78
2023/08/03 01:28:09;;;;;;;2.45;1.00;;;;;;;;;;5079751;28;20498;-77
2023/08/03 01:30:34;;;;;;;1.95;0.80;;;;;;;;;;5078053;28;20086;-77
2023/08/03 01:33:00;;;;;;;2.92;1.00;;;;;;;;;;5074945;28;20399;-78
2023/08/03 01:35:25;;;;;;;2.42;0.88;;;;;;;;;;5073837;28;20024;-77
2023/08/03 01:37:51;;;;;;;5.15;1.00;;;;;;;;;;5075157;28;20578;-77
2023/08/03 01:40:17;;;;;;;2.72;0.82;;;;;;;;;;5073275;28;20090;-77
2023/08/03 01:42:43;;;;;;;5.50;1.10;;;;;;;;;;5081153;28;20090;-79
2023/08/03 01:45:09;;;;;;;5.07;1.00;;;;;;;;;;5085092;28;20028;-78
2023/08/03 01:47:34;;;;;;;2.97;1.13;;;;;;;;;;5081235;28;20079;-78
2023/08/03 01:49:59;;;;;;;3.00;1.00;;;;;;;;;;5077680;28;20025;-78
2023/08/03 01:52:25;;;;;;;6.35;1.15;;;;;;;;;;5083490;28;20033;-78
2023/08/03 01:54:50;;;;;;;3.50;1.10;;;;;;;;;;5081574;28;20036;-78
2023/08/03 01:57:17;;;;;;;3.85;1.30;;;;;;;;;;5086112;28;20021;-79
2023/08/03 01:59:43;;;;;;;3.38;0.95;;;;;;;;;;5088714;28;20024;-79
2023/08/03 02:02:08;;;;;;;5.22;1.05;;;;;;;;;;5076445;28;20086;-77
2023/08/03 02:04:34;;;;;;;2.63;0.93;;;;;;;;;;5073733;28;20047;-77
2023/08/03 02:07:08;;;;;;;2.30;1.05;;;;;;;;;;5083395;28;20017;-79
2023/08/03 02:09:33;;;;;;;5.40;1.17;;;;;;;;;;5080551;28;20451;-77
2023/08/03 02:11:58;;;;;;;2.83;1.33;;;;;;;;;;5080879;28;20032;-78
2023/08/03 02:14:24;;;;;;;9.98;1.30;;;;;;;;;;5081635;28;20387;-78
2023/08/03 02:16:49;;;;;;;4.73;1.30;;;;;;;;;;5079820;28;20035;-77
2023/08/03 02:19:14;;;;;;;2.50;1.00;;;;;;;;;;5079716;28;20285;-78
2023/08/03 02:21:39;;;;;;;6.43;1.25;;;;;;;;;;5080843;28;20264;-78
2023/08/03 02:24:05;;;;;;;3.40;1.13;;;;;;;;;;5082688;28;20101;-77
2023/08/03 02:26:30;;;;;;;5.75;1.20;;;;;;;;;;5089011;28;20044;-78
2023/08/03 02:28:55;;;;;;;3.03;0.90;;;;;;;;;;5082109;28;20034;-77
2023/08/03 02:31:20;;;;;;;7.95;1.17;;;;;;;;;;5083632;28;20265;-78
2023/08/03 02:33:46;;;;;;;6.10;1.33;;;;;;;;;;5083018;28;20480;-78
2023/08/03 02:36:11;;;;;;;2.67;0.80;;;;;;;;;;5082515;28;20664;-77
2023/08/03 02:38:36;;;;;;;4.72;1.05;;;;;;;;;;5086191;28;20373;-79
2023/08/03 02:41:01;;;;;;;8.37;1.27;;;;;;;;;;5085683;28;20561;-79
2023/08/03 02:43:27;;;;;;;7.20;1.33;;;;;;;;;;5088897;28;20280;-79
2023/08/03 02:45:53;;;;;;;1.70;0.98;;;;;;;;;;5091324;28;20307;-78
2023/08/03 02:48:18;;;;;;;4.70;1.10;;;;;;;;;;5091288;28;20039;-79
2023/08/03 02:50:43;;;;;;;4.50;1.20;;;;;;;;;;5084182;28;20021;-77
2023/08/03 02:53:09;;;;;;;5.55;1.10;;;;;;;;;;5078245;28;20098;-78
2023/08/03 02:55:34;;;;;;;5.00;1.13;;;;;;;;;;5075961;28;20479;-77
2023/08/03 02:57:59;;;;;;;3.07;1.07;;;;;;;;;;5078670;28;20332;-78
2023/08/03 03:00:25;;;;;;;5.25;1.42;;;;;;;;;;5077650;28;20315;-77
2023/08/03 03:02:50;;;;;;;3.88;1.10;;;;;;;;;;5076426;28;20020;-77
2023/08/03 03:05:15;;;;;;;4.45;1.10;;;;;;;;;;5076662;28;20027;-77
2023/08/03 03:07:40;;;;;;;2.77;0.93;;;;;;;;;;5075879;28;20491;-77
2023/08/03 03:10:06;;;;;;;4.03;1.13;;;;;;;;;;5087079;28;20299;-78
2023/08/03 03:12:31;;;;;;;3.40;1.05;;;;;;;;;;5083447;28;20252;-78
2023/08/03 03:14:56;;;;;;;5.70;1.20;;;;;;;;;;5082258;28;20020;-77
2023/08/03 03:17:22;;;;;;;5.75;1.05;;;;;;;;;;5080918;28;20107;-78
2023/08/03 03:19:47;;;;;;;6.53;1.23;;;;;;;;;;5083071;28;20024;-77
2023/08/03 03:22:12;;;;;;;4.22;0.93;;;;;;;;;;5081366;28;20033;-77
2023/08/03 03:24:37;;;;;;;4.60;1.07;;;;;;;;;;5084642;28;20025;-79
2023/08/03 03:27:03;;;;;;;5.90;1.40;;;;;;;;;;5086788;28;20278;-78
2023/08/03 03:29:28;;;;;;;4.60;1.13;;;;;;;;;;5089318;28;20310;-80
2023/08/03 03:31:53;;;;;;;3.73;1.10;;;;;;;;;;5086962;28;20028;-78
2023/08/03 03:34:19;;;;;;;5.45;1.20;;;;;;;;;;5085166;28;20261;-78
2023/08/03 03:36:44;;;;;;;4.60;0.93;;;;;;;;;;5085036;28;20020;-78
2023/08/03 03:39:09;;;;;;;3.20;1.00;;;;;;;;;;5087255;28;20031;-79
2023/08/03 03:41:34;;;;;;;3.38;1.10;;;;;;;;;;5082890;28;20306;-79
2023/08/03 03:44:00;;;;;;;4.10;1.27;;;;;;;;;;5087793;28;20024;-78
2023/08/03 03:46:25;;;;;;;4.13;1.13;;;;;;;;;;5084302;28;20652;-78
2023/08/03 03:48:50;;;;;;;4.57;1.00;;;;;;;;;;5086829;28;20241;-79
2023/08/03 03:51:18;;;;;;;7.80;1.30;;;;;;;;;;5087815;28;20020;-79
2023/08/03 03:53:44;;;;;;;2.97;0.98;;;;;;;;;;5088154;28;20035;-79
2023/08/03 03:56:09;;;;;;;4.22;1.13;;;;;;;;;;5089068;28;20020;-78
2023/08/03 03:58:34;;;;;;;2.97;1.03;;;;;;;;;;5086130;28;20037;-78
2023/08/03 04:01:00;;;;;;;3.43;1.30;;;;;;;;;;5083163;28;20260;-79
2023/08/03 04:03:26;;;;;;;5.45;1.02;;;;;;;;;;5084639;28;20620;-78
2023/08/03 04:05:52;;;;;;;4.32;1.20;;;;;;;;;;5083511;28;20051;-78
2023/08/03 04:08:17;;;;;;;2.97;1.15;;;;;;;;;;5083348;28;20031;-78
2023/08/03 04:10:43;;;;;;;6.57;1.40;;;;;;;;;;5085887;28;20025;-79
2023/08/03 04:13:08;;;;;;;3.00;1.27;;;;;;;;;;5087929;28;20332;-79
2023/08/03 04:15:33;;;;;;;7.78;1.20;;;;;;;;;;5084846;28;20249;-77
2023/08/03 04:17:58;;;;;;;9.07;1.50;;;;;;;;;;5083679;28;20073;-77
2023/08/03 04:20:24;;;;;;;4.30;0.80;;;;;;;;;;5079346;28;20471;-78
2023/08/03 04:22:49;;;;;;;6.23;1.20;;;;;;;;;;5081570;28;20601;-78
2023/08/03 04:25:14;;;;;;;8.83;1.43;;;;;;;;;;5078680;28;20260;-78
2023/08/03 04:27:39;;;;;;;2.35;1.00;;;;;;;;;;5077963;28;20277;-78
2023/08/03 04:30:05;;;;;;;4.10;1.07;;;;;;;;;;5080352;28;20017;-78
2023/08/03 04:32:30;;;;;;;6.50;1.20;;;;;;;;;;5077457;28;20249;-77
2023/08/03 04:34:56;;;;;;;4.88;0.98;;;;;;;;;;5083220;28;20111;-77
2023/08/03 04:37:21;;;;;;;5.85;1.08;;;;;;;;;;5085746;28;20024;-79
2023/08/03 04:39:47;;;;;;;3.45;1.02;;;;;;;;;;5086056;28;20027;-80
2023/08/03 04:42:12;;;;;;;4.35;1.10;;;;;;;;;;5080663;28;20094;-77
2023/08/03 04:44:37;;;;;;;6.57;1.37;;;;;;;;;;5077285;28;20020;-79
2023/08/03 04:47:03;;;;;;;5.65;1.08;;;;;;;;;;5078592;28;20341;-77
2023/08/03 04:49:28;;;;;;;3.45;0.90;;;;;;;;;;5082491;28;20032;-78
2023/08/03 04:51:53;;;;;;;4.78;1.13;;;;;;;;;;5080686;28;20559;-78
2023/08/03 04:54:20;;;;;;;6.32;1.13;;;;;;;;;;5080973;28;20036;-78
2023/08/03 04:56:45;;;;;;;2.53;0.88;;;;;;;;;;5082757;28;20444;-78
2023/08/03 04:59:10;;;;;;;3.45;0.90;;;;;;;;;;5079665;28;20021;-78
2023/08/03 05:01:35;;;;;;;9.00;1.30;;;;;;;;;;5083255;28;20020;-78
2023/08/03 05:04:01;;;;;;;4.43;1.15;;;;;;;;;;5086924;28;20086;-78
2023/08/03 05:06:27;;;;;;;9.27;1.17;;;;;;;;;;5083535;28;20025;-78
2023/08/03 05:08:52;;;;;;;3.30;1.10;;;;;;;;;;5086837;28;20487;-78
2023/08/03 05:11:18;;;;;;;5.00;1.00;;;;;;;;;;5083511;28;20064;-78
2023/08/03 05:13:43;;;;;;;5.63;1.00;;;;;;;;;;5079059;28;20479;-77
2023/08/03 05:16:08;;;;;;;4.32;0.80;;;;;;;;;;5079384;28;20032;-78
2023/08/03 05:18:33;;;;;;;5.10;0.90;;;;;;;;;;5076311;28;20170;-77
2023/08/03 05:20:59;;;;;;;1.70;0.90;;;;;;;;;;5077145;28;20032;-79
2023/08/03 05:23:24;;;;;;;3.08;1.10;;;;;;;;;;5076636;28;20376;-78
2023/08/03 05:25:56;;;;;;;3.22;1.02;;;;;;;;;;5083888;28;20020;-79
2023/08/03 05:28:22;;;;;;;5.32;0.80;;;;;;;;;;5084406;28;20028;-78
2023/08/03 05:30:48;;;;;;;5.68;1.17;;;;;;;;;;5082944;28;20483;-79
2023/08/03 05:33:13;;;;;;;3.70;1.05;;;;;;;;;;5081633;28;20054;-78
2023/08/03 05:35:38;;;;;;;4.00;0.90;;;;;;;;;;5080805;28;20028;-78
2023/08/03 05:38:04;;;;;;;7.78;1.05;;;;;;;;;;5081833;28;20095;-79
2023/08/03 05:40:29;;;;;;;3.60;1.00;;;;;;;;;;5079314;28;20024;-77
2023/08/03 05:42:54;;;;;;;9.55;1.27;;;;;;;;;;5083785;28;20253;-78
2023/08/03 05:45:40;;;;;;;2.55;0.85;;;;;;;;;;5079705;28;20029;-77
2023/08/03 05:48:18;;;;;;;1.25;0.65;;;;;;;;;;5080380;28;20070;-78
2023/08/03 05:50:45;;;;;;;3.03;0.70;;;;;;;;;;5079464;28;20048;-78
2023/08/03 05:53:11;;;;;;;2.22;0.77;;;;;;;;;;5074904;28;20052;-78
2023/08/03 05:55:37;;;;;;;5.47;0.93;;;;;;;;;;5081349;28;20111;-78
2023/08/03 05:58:04;;;;;;;2.38;0.82;;;;;;;;;;5084011;28;20025;-78
2023/08/03 06:00:29;;;;;;;6.63;0.90;;;;;;;;;;5083259;28;20028;-78
2023/08/03 06:02:59;;;;;;;3.53;0.85;;;;;;;;;;5082739;28;20025;-78
2023/08/03 06:05:40;;;;;;;4.95;1.17;;;;;;;;;;5083911;28;20032;-79
2023/08/03 06:08:18;;;;;;;2.00;0.73;;;;;;;;;;5083968;28;20039;-78
2023/08/03 06:10:48;;;;;;;11.95;1.00;;;;;;;;;;5079020;28;20036;-77
2023/08/03 06:13:16;;;;;;;3.72;0.80;;;;;;;;;;5077376;28;20056;-77
2023/08/03 06:15:43;;;;;;;5.63;1.25;;;;;;;;;;5081904;28;20032;-78
2023/08/03 06:18:12;;;;;;;5.82;1.13;;;;;;;;;;5078645;28;20097;-77
2023/08/03 06:20:46;;;;;;;3.58;0.80;;;;;;;;;;5084259;28;20028;-78
2023/08/03 06:23:19;;;;;;;2.63;0.70;;;;;;;;;;5081734;28;20490;-78
2023/08/03 06:25:46;;;;;;;4.68;1.02;;;;;;;;;;5074119;28;20029;-78
2023/08/03 06:28:15;;;;;;;7.55;0.95;;;;;;;;;;5076326;28;20104;-78
2023/08/03 06:30:41;;;;;;;3.65;0.90;;;;;;;;;;5074318;28;20515;-79
2023/08/03 06:33:09;;;;;;;4.55;0.82;;;;;;;;;;5072600;28;20028;-79
2023/08/03 06:35:37;;;;;;;3.50;0.70;;;;;;;;;;5074519;28;20028;-78
2023/08/03 06:38:04;;;;;;;3.25;0.85;;;;;;;;;;5074941;28;20024;-78
2023/08/03 06:40:29;;;;;;;2.72;0.90;;;;;;;;;;5075544;28;20064;-78
2023/08/03 06:42:54;;;;;;;4.07;1.35;;;;;;;;;;5075622;28;20024;-80
2023/08/03 06:45:20;;;;;;;10.27;1.95;;;;;;;;;;5075220;28;20415;-80
2023/08/03 06:47:45;;;;;;;1.65;0.70;;;;;;;;;;5074659;28;20024;-78
2023/08/03 06:50:11;;;;;;;6.03;1.58;;;;;;;;;;5071893;28;20081;-77
2023/08/03 06:52:36;;;;;;;6.80;1.63;;;;;;;;;;5073184;28;20052;-78
2023/08/03 06:55:01;;;;;;;2.60;0.85;;;;;;;;;;5076117;28;20024;-78
2023/08/03 06:57:27;;;;;;;2.80;0.68;;;;;;;;;;5075216;28;20040;-78
2023/08/03 06:59:55;;;;;;;3.13;0.98;;;;;;;;;;5076373;28;20020;-78
2023/08/03 07:02:20;;;;;;;4.50;0.70;;;;;;;;;;5075966;28;20020;-76
2023/08/03 07:04:45;;;;;;;1.63;0.60;;;;;;;;;;5074275;28;20575;-76
2023/08/03 07:07:10;;;;;;;2.60;0.70;;;;;;;;;;5075933;28;20028;-76
2023/08/03 07:09:36;;;;;;;2.40;0.80;;;;;;;;;;5075450;28;20025;-77
2023/08/03 07:12:01;;;;;;;2.00;0.53;;;;;;;;;;5073995;28;20395;-76
2023/08/03 07:14:26;;;;;;;2.07;0.67;;;;;;;;;;5075547;28;20257;-77
2023/08/03 07:16:51;;;;;;;1.07;0.50;;;;;;;;;;5075335;28;20288;-77
2023/08/03 07:19:18;;;;;;;3.00;0.77;;;;;;;;;;5075537;28;20249;-77
2023/08/03 07:21:43;;;;;;;2.47;0.70;;;;;;;;;;5076251;28;20269;-78
2023/08/03 07:24:09;;;;;;;1.42;0.60;;;;;;;;;;5075968;28;20035;-77
2023/08/03 07:26:34;;;;;;;5.07;0.63;;;;;;;;;;5075335;28;20020;-77
2023/08/03 07:29:00;;;;;;;1.42;0.50;;;;;;;;;;5075270;28;20016;-76
2023/08/03 07:31:26;;;;;;;6.73;0.60;;;;;;;;;;5074918;28;20025;-74
2023/08/03 07:33:51;;;;;;;5.05;0.60;;;;;;;;;;5074173;28;20293;-77
2023/08/03 07:36:18;;;;;;;1.50;0.70;;;;;;;;;;5074521;28;20519;-77
2023/08/03 07:38:43;;;;;;;2.03;0.50;;;;;;;;;;5076366;28;20430;-77
2023/08/03 07:41:08;;;;;;;1.48;0.63;;;;;;;;;;5073622;28;20040;-77
2023/08/03 07:43:34;;;;;;;2.75;0.55;;;;;;;;;;5075142;28;20386;-76
2023/08/03 07:46:01;;;;;;;1.20;0.53;;;;;;;;;;5075213;28;20070;-75
2023/08/03 07:48:27;;;;;;;2.38;0.93;;;;;;;;;;5073830;28;20348;-78
2023/08/03 07:50:52;;;;;;;2.93;0.77;;;;;;;;;;5075114;28;20055;-75
2023/08/03 07:53:17;;;;;;;3.07;0.80;;;;;;;;;;5073305;28;20260;-75
2023/08/03 07:55:42;;;;;;;2.37;0.70;;;;;;;;;;5074401;28;20249;-75
2023/08/03 07:58:07;;;;;;;4.00;0.70;;;;;;;;;;5074476;28;20256;-72
2023/08/03 08:00:33;;;;;;;1.88;0.80;;;;;;;;;;5074367;28;20383;-75
2023/08/03 08:02:58;;;;;;;5.53;0.70;;;;;;;;;;5074119;28;20399;-75
2023/08/03 08:05:23;;;;;;;1.17;0.70;;;;;;;;;;5073208;28;20273;-75
2023/08/03 08:07:49;;;;;;;4.38;0.70;;;;;;;;;;5072952;28;20021;-73
2023/08/03 08:10:14;;;;;;;2.97;0.60;;;;;;;;;;5074115;28;20025;-74
2023/08/03 08:12:39;;;;;;;0.60;0.50;;;;;;;;;;5072859;28;20036;-72
2023/08/03 08:15:05;;;;;;;2.88;0.70;;;;;;;;;;5074393;28;20048;-76
2023/08/03 08:17:30;;;;;;;4.35;1.30;;;;;;;;;;5074041;28;20016;-75
2023/08/03 08:20:02;;;;;;;1.75;0.68;;;;;;;;;;5074086;28;20024;-76
2023/08/03 08:22:28;;;;;;;1.60;0.50;;;;;;;;;;5074286;28;20028;-76
2023/08/03 08:24:53;;;;;;;3.10;0.75;;;;;;;;;;5074259;28;20028;-76
2023/08/03 08:27:18;;;;;;;1.27;0.57;;;;;;;;;;5072411;28;20044;-76
2023/08/03 08:29:45;;;;;;;0.57;0.40;;;;;;;;;;5072447;28;20111;-74
2023/08/03 08:32:10;;;;;;;0.95;0.40;;;;;;;;;;5073644;28;20514;-75
2023/08/03 08:34:36;;;;;;;1.65;0.47;;;;;;;;;;5073923;28;20029;-75
2023/08/03 08:37:01;;;;;;;3.50;0.85;;;;;;;;;;5073689;28;20013;-75
2023/08/03 08:39:29;;;;;;;2.30;0.50;;;;;;;;;;5073701;28;20024;-76
2023/08/03 08:41:54;;;;;;;8.20;0.90;;;;;;;;;;5072251;28;20261;-75
2023/08/03 08:44:19;;;;;;;6.15;0.60;;;;;;;;;;5073594;28;20398;-74
2023/08/03 08:46:44;;;;;;;2.63;0.40;;;;;;;;;;5072146;28;20494;-74
2023/08/03 08:49:11;;;;;;;1.30;0.50;;;;;;;;;;5073825;28;20415;-74
2023/08/03 08:51:39;;;;;;;2.28;0.43;;;;;;;;;;5073402;28;20024;-75
2023/08/03 08:54:04;;;;;;;2.40;0.73;;;;;;;;;;5072034;28;20027;-75
2023/08/03 08:56:29;;;;;;;1.95;0.60;;;;;;;;;;5073393;28;20095;-74
2023/08/03 08:58:55;;;;;;;2.15;0.50;;;;;;;;;;5073664;28;20096;-76
2023/08/03 09:01:20;;;;;;;1.58;0.60;;;;;;;;;;5073328;28;20448;-74
2023/08/03 09:03:48;;;;;;;5.90;1.13;;;;;;;;;;5073255;28;20024;-75
2023/08/03 09:06:14;;;;;;;1.05;0.50;;;;;;;;;;5073380;28;20056;-75
2023/08/03 09:08:53;;;;;;;2.08;0.60;;;;;;;;;;5071954;28;20036;-75
2023/08/03 09:11:35;;;;;;;2.78;0.68;;;;;;;;;;5071729;28;20503;-74
2023/08/03 09:14:00;;;;;;;1.50;0.55;;;;;;;;;;5073427;28;20444;-75
2023/08/03 09:16:27;;;;;;;0.82;0.50;;;;;;;;;;5072346;28;20111;-75
2023/08/03 09:18:53;;;;;;;5.43;0.80;;;;;;;;;;5073086;28;20028;-74
2023/08/03 09:21:19;;;;;;;1.10;0.45;;;;;;;;;;5072956;28;20384;-75
2023/08/03 09:23:45;;;;;;;2.25;0.68;;;;;;;;;;5073019;28;20024;-76
2023/08/03 09:26:11;;;;;;;1.30;0.45;;;;;;;;;;5073190;28;20117;-76
2023/08/03 09:28:42;;;;;;;2.47;0.68;;;;;;;;;;5073171;28;20028;-75
2023/08/03 09:31:09;;;;;;;0.98;0.40;;;;;;;;;;5072913;28;20494;-75
2023/08/03 09:33:35;;;;;;;4.60;0.63;;;;;;;;;;5072869;28;20479;-75
2023/08/03 09:36:13;;;;;;;2.70;0.63;;;;;;;;;;5073197;28;20107;-75
2023/08/03 09:38:40;;;;;;;3.70;0.52;;;;;;;;;;5073060;28;20074;-76
2023/08/03 09:41:05;;;;;;;2.42;0.52;;;;;;;;;;5072180;28;20024;-77
2023/08/03 09:43:31;;;;;;;1.70;0.40;;;;;;;;;;5073064;28;20552;-75
2023/08/03 09:45:57;;;;;;;0.82;0.40;;;;;;;;;;5072915;28;20059;-77
2023/08/03 09:48:24;;;;;;;0.57;0.35;;;;;;;;;;5072691;28;20024;-75
2023/08/03 09:50:51;;;;;;;2.63;0.55;;;;;;;;;;5072487;28;20403;-79
2023/08/03 09:53:20;;;;;;;1.10;0.63;;;;;;;;;;5071600;28;20438;-76
2023/08/03 09:55:53;;;;;;;3.53;0.47;;;;;;;;;;5071297;28;20055;-76
2023/08/03 09:58:21;;;;;;;3.03;0.65;;;;;;;;;;5072250;28;20032;-76
2023/08/03 10:00:49;;;;;;;2.97;0.50;;;;;;;;;;5071423;28;20028;-75
2023/08/03 10:03:18;;;;;;;0.95;0.38;;;;;;;;;;5071425;28;20031;-77
2023/08/03 10:05:51;;;;;;;2.25;0.40;;;;;;;;;;5072889;28;20055;-76
2023/08/03 10:08:22;;;;;;;2.00;0.47;;;;;;;;;;5071343;28;20032;-77
2023/08/03 10:10:49;;;;;;;1.83;0.38;;;;;;;;;;5072418;28;20085;-77
2023/08/03 10:13:15;;;;;;;4.82;0.50;;;;;;;;;;5071592;28;20021;-76
2023/08/03 10:15:41;;;;;;;1.35;0.40;;;;;;;;;;5072756;28;20025;-76
2023/08/03 10:18:07;;;;;;;0.40;0.30;;;;;;;;;;5072400;28;20020;-76
2023/08/03 10:20:36;;;;;;;2.08;0.32;;;;;;;;;;5071817;28;20440;-76
2023/08/03 10:23:11;;;;;;;0.50;0.30;;;;;;;;;;5071373;28;20487;-77
2023/08/03 10:25:53;;;;;;;0.32;0.22;;;;;;;;;;5071252;28;20028;-76
2023/08/03 10:28:20;;;;;;;3.47;0.52;;;;;;;;;;5076244;28;20032;-76
2023/08/03 10:31:05;;;;;;;3.63;0.70;;;;;;;;;;5076046;28;20036;-77
2023/08/03 10:33:46;;;;;;;2.05;0.50;;;;;;;;;;5076078;28;20021;-76
2023/08/03 10:36:34;;;;;;;0.25;0.25;;;;;;;;;;5076021;28;20020;-77
2023/08/03 10:39:00;;;;;;;3.00;0.60;;;;;;;;;;5072471;28;20051;-76
2023/08/03 10:41:36;;;;;;;1.27;0.50;;;;;;;;;;5075902;28;20090;-78
2023/08/03 10:44:04;;;;;;;2.05;0.70;;;;;;;;;;5077324;28;20032;-77
2023/08/03 10:46:31;;;;;;;1.45;0.38;;;;;;;;;;5078254;28;20505;-80
2023/08/03 10:48:56;;;;;;;0.65;0.28;;;;;;;;;;5078335;28;20040;-79
2023/08/03 10:51:24;;;;;;;1.60;0.40;;;;;;;;;;5079239;28;20029;-77
2023/08/03 10:53:50;;;;;;;2.88;0.68;;;;;;;;;;5078624;28;20310;-78
2023/08/03 10:56:15;;;;;;;2.65;0.40;;;;;;;;;;5076688;28;20421;-80
2023/08/03 10:58:44;;;;;;;0.55;0.30;;;;;;;;;;5077545;28;20036;-82
2023/08/03 11:01:22;;;;;;;2.60;0.70;;;;;;;;;;5075384;28;20052;-78
2023/08/03 11:03:47;;;;;;;2.92;0.63;;;;;;;;;;5079028;28;20021;-79
2023/08/03 11:06:13;;;;;;;1.43;0.50;;;;;;;;;;5077460;28;20028;-79
2023/08/03 11:08:38;;;;;;;2.47;0.57;;;;;;;;;;5078714;28;20250;-78
2023/08/03 11:11:04;;;;;;;1.52;0.55;;;;;;;;;;5078546;28;20438;-79
2023/08/03 11:13:29;;;;;;;2.08;0.55;;;;;;;;;;5077283;28;20032;-79
2023/08/03 11:15:54;;;;;;;3.28;0.68;;;;;;;;;;5079548;28;20016;-80
2023/08/03 11:18:20;;;;;;;2.37;0.60;;;;;;;;;;5079053;28;20082;-78
2023/08/03 11:20:45;;;;;;;1.13;0.52;;;;;;;;;;5077694;28;20752;-79
2023/08/03 11:23:13;;;;;;;5.33;0.57;;;;;;;;;;5078284;28;20024;-80
2023/08/03 11:25:39;;;;;;;1.05;0.40;;;;;;;;;;5078726;28;20289;-79
2023/08/03 11:28:05;;;;;;;2.65;0.55;;;;;;;;;;5078905;28;20029;-79
2023/08/03 11:30:30;;;;;;;1.40;0.50;;;;;;;;;;5078231;28;20034;-79
2023/08/03 11:32:59;;;;;;;1.07;0.47;;;;;;;;;;5078604;28;20024;-79
2023/08/03 11:35:24;;;;;;;2.05;0.40;;;;;;;;;;5078318;28;20253;-78
2023/08/03 11:37:50;;;;;;;1.65;0.65;;;;;;;;;;5078586;28;20470;-79
2023/08/03 11:40:16;;;;;;;1.63;0.50;;;;;;;;;;5076112;28;20024;-78
2023/08/03 11:42:43;;;;;;;1.60;0.68;;;;;;;;;;5078249;28;20021;-80
2023/08/03 11:45:09;;;;;;;0.75;0.40;;;;;;;;;;5077171;28;20054;-78
2023/08/03 11:47:44;;;;;;;3.15;0.60;;;;;;;;;;5077623;28;20033;-79
2023/08/03 11:50:10;;;;;;;1.98;0.57;;;;;;;;;;5079467;28;20029;-78
2023/08/03 11:52:36;;;;;;;0.90;0.57;;;;;;;;;;5078028;28;20532;-78
2023/08/03 11:55:01;;;;;;;3.17;0.45;;;;;;;;;;5077792;28;20391;-78
2023/08/03 12:00:13;;;;;;;3.35;0.60;;;;;;;;;;5077137;28;20477;-78
2023/08/03 12:02:43;;;;;;;1.50;0.55;;;;;;;;;;5076548;28;20051;-78
2023/08/03 12:05:09;;;;;;;5.15;0.68;;;;;;;;;;5077930;28;20103;-78
2023/08/03 12:07:35;;;;;;;1.77;0.68;;;;;;;;;;5077964;28;20082;-78
2023/08/03 12:10:00;;;;;;;4.22;0.60;;;;;;;;;;5078684;28;20066;-79
2023/08/03 12:12:25;;;;;;;1.85;0.70;;;;;;;;;;5079791;28;20107;-77
2023/08/03 12:14:51;;;;;;;1.55;0.63;;;;;;;;;;5079040;28;20021;-78
2023/08/03 12:17:16;;;;;;;1.48;0.57;;;;;;;;;;5080503;28;20052;-78
2023/08/03 12:19:41;;;;;;;0.43;0.37;;;;;;;;;;5078851;28;20027;-77
2023/08/03 12:22:07;;;;;;;1.92;0.70;;;;;;;;;;5079024;28;20265;-78
2023/08/03 12:24:33;;;;;;;3.38;0.57;;;;;;;;;;5079702;28;20033;-77
2023/08/03 12:27:01;;;;;;;3.25;0.70;;;;;;;;;;5077599;28;20371;-78
2023/08/03 12:29:26;;;;;;;2.28;0.55;;;;;;;;;;5074462;28;20021;-78
2023/08/03 12:31:52;;;;;;;2.53;0.57;;;;;;;;;;5073737;28;20089;-77
2023/08/03 12:34:17;;;;;;;0.93;0.43;;;;;;;;;;5078570;28;20265;-78
2023/08/03 12:36:42;;;;;;;1.23;0.60;;;;;;;;;;5077655;28;20078;-78
2023/08/03 12:39:08;;;;;;;4.93;0.67;;;;;;;;;;5073655;28;20523;-78
2023/08/03 12:41:33;;;;;;;0.50;0.45;;;;;;;;;;5074943;28;20287;-79
2023/08/03 12:43:58;;;;;;;1.63;0.50;;;;;;;;;;5076331;28;20024;-78
2023/08/03 12:46:24;;;;;;;4.75;0.70;;;;;;;;;;5077455;28;20031;-78
2023/08/03 12:48:50;;;;;;;0.93;0.40;;;;;;;;;;5076579;28;20024;-79
2023/08/03 12:51:17;;;;;;;2.88;0.50;;;;;;;;;;5073581;28;20065;-78
2023/08/03 12:53:44;;;;;;;3.53;0.70;;;;;;;;;;5075093;28;20447;-78
2023/08/03 12:56:09;;;;;;;1.90;0.50;;;;;;;;;;5075781;28;20035;-78
2023/08/03 12:58:35;;;;;;;3.83;0.80;;;;;;;;;;5081222;28;20103;-80
2023/08/03 13:01:00;;;;;;;0.60;0.30;;;;;;;;;;5080418;28;20119;-79
2023/08/03 13:03:25;;;;;;;1.67;0.40;;;;;;;;;;5076921;28;20261;-79
2023/08/03 13:05:50;;;;;;;2.60;0.70;;;;;;;;;;5084222;28;20028;-79
2023/08/03 13:08:16;;;;;;;3.83;0.55;;;;;;;;;;5079019;28;20471;-78
2023/08/03 13:10:43;;;;;;;1.48;0.40;;;;;;;;;;5075087;28;20026;-77
2023/08/03 13:13:09;;;;;;;2.13;0.40;;;;;;;;;;5075106;28;20025;-77
2023/08/03 13:15:34;;;;;;;0.63;0.40;;;;;;;;;;5074709;28;20065;-79
2023/08/03 13:17:59;;;;;;;1.70;0.43;;;;;;;;;;5076370;28;20296;-78
2023/08/03 13:20:25;;;;;;;0.95;0.30;;;;;;;;;;5077381;28;20253;-77
2023/08/03 13:22:50;;;;;;;0.60;0.40;;;;;;;;;;5076509;28;20103;-77
2023/08/03 13:25:15;;;;;;;5.55;0.60;;;;;;;;;;5076603;28;20025;-79
2023/08/03 13:27:41;;;;;;;3.13;0.60;;;;;;;;;;5074197;28;20032;-78
2023/08/03 13:30:07;;;;;;;0.70;0.30;;;;;;;;;;5075389;28;20107;-78
2023/08/03 13:32:32;;;;;;;1.55;0.40;;;;;;;;;;5074683;28;20758;-78
2023/08/03 13:34:57;;;;;;;0.98;0.40;;;;;;;;;;5072722;28;20047;-77
2023/08/03 13:37:23;;;;;;;0.47;0.37;;;;;;;;;;5073462;28;20024;-79
2023/08/03 13:39:48;;;;;;;1.52;0.40;;;;;;;;;;5074099;28;20256;-78
2023/08/03 13:42:14;;;;;;;0.70;0.40;;;;;;;;;;5072604;28;20020;-77
2023/08/03 13:44:39;;;;;;;1.75;0.47;;;;;;;;;;5073186;28;20259;-78
2023/08/03 13:47:05;;;;;;;1.02;0.60;;;;;;;;;;5074778;28;20111;-78
2023/08/03 13:49:31;;;;;;;0.50;0.50;;;;;;;;;;5074164;28;20046;-78
2023/08/03 13:51:57;;;;;;;1.55;0.43;;;;;;;;;;5074731;28;20056;-78
2023/08/03 13:54:22;;;;;;;1.83;0.70;;;;;;;;;;5075607;28;20518;-77
2023/08/03 13:56:48;;;;;;;1.75;0.40;;;;;;;;;;5073289;28;20047;-77
2023/08/03 13:59:13;;;;;;;1.00;0.35;;;;;;;;;;5073616;28;20031;-78
2023/08/03 14:01:38;;;;;;;1.75;0.52;;;;;;;;;;5076298;28;20032;-77
2023/08/03 14:04:05;;;;;;;2.47;0.45;;;;;;;;;;5079158;28;20024;-78
2023/08/03 14:06:30;;;;;;;0.85;0.68;;;;;;;;;;5077314;28;20563;-77
2023/08/03 14:08:56;;;;;;;0.98;0.50;;;;;;;;;;5077749;28;20024;-78
2023/08/03 14:11:22;;;;;;;0.70;0.40;;;;;;;;;;5081677;28;20506;-79
2023/08/03 14:13:47;;;;;;;1.02;0.60;;;;;;;;;;5083752;28;20105;-78
2023/08/03 14:16:13;;;;;;;1.25;0.50;;;;;;;;;;5083832;28;20057;-79
2023/08/03 14:18:38;;;;;;;6.75;0.80;;;;;;;;;;5086719;28;20056;-79
2023/08/03 14:21:04;;;;;;;10.70;0.80;;;;;;;;;;5086784;28;20039;-81
2023/08/03 14:23:29;;;;;;;2.55;0.57;;;;;;;;;;5088633;28;20257;-79
2023/08/03 14:25:55;;;;;;;4.22;1.20;;;;;;;;;;5087115;28;20024;-81
2023/08/03 14:28:20;;;;;;;0.93;0.47;;;;;;;;;;5084255;28;20025;-81
2023/08/03 14:30:45;;;;;;;1.63;0.35;;;;;;;;;;5085497;28;20036;-79
2023/08/03 14:33:12;;;;;;;1.30;0.40;;;;;;;;;;5080730;28;20028;-78
2023/08/03 14:35:37;;;;;;;1.58;0.30;;;;;;;;;;5084970;28;20020;-81
2023/08/03 14:38:02;;;;;;;0.60;0.45;;;;;;;;;;5083458;28;20085;-78
2023/08/03 14:40:28;;;;;;;0.77;0.40;;;;;;;;;;5081050;28;20063;-79